Venezia / Tessera - Marco Polo Airport

Airport
ICAO code: 
LIPZ
IATA Code: 
VCE
Summary
ICAO Region: 
EUR
Territory: 
Location: 
Tessera, Veneto
Serving: 
Venice
Elevation: 
7 ft
Coordinates: 
Aerial View: 
45° 30' 19.001" N, 12° 21' 6.998" E
Metar
Observation
LIPZ 072120Z 04005KT CAVOK 01/M02 Q1014 NOSIG
Station
Venezia / Tessera
Date/Time
2021-12-07 21:20:00
Wind direction
40°
Wind speed
05 kts
Lowest cloud amount
clouds and visibility OK
Temperature
1°C
Dew point
-2°C
Humidity
80%
QNH
1014 hPa
Weather condition
n/a

Venice Marco Polo Airport is the international airport of Venice, Italy. It is located on the mainland 4.3 nautical miles north of the city in Tessera.

Runways

Designator Length Width Surface Rops
04L/22R 2780 45 ASP Yes/Yes
04R/22L 3300 45 ASP Yes/Yes
Airport map: 
Aerial View: 

SKYbrary Partners:

Safety knowledge contributed by: